createdAt,value
2018-08-09T00:01:47.785Z,101101.34
2018-08-09T00:04:17.564Z,101094.53
2018-08-09T00:06:48.053Z,101092.16
2018-08-09T00:09:17.806Z,101087.75
2018-08-09T00:11:47.573Z,101100.61
2018-08-09T00:14:18.352Z,101100.09
2018-08-09T00:16:49.124Z,101099.44
2018-08-09T00:19:18.773Z,101098.41
2018-08-09T00:21:53.243Z,101096.40
2018-08-09T00:24:24.108Z,101096.19
2018-08-09T00:26:55.438Z,101091.80
2018-08-09T00:29:25.199Z,101081.44
2018-08-09T00:31:56.054Z,101085.64
2018-08-09T00:34:27.412Z,101083.05
2018-08-09T00:36:57.645Z,101083.32
2018-08-09T00:39:31.863Z,101088.30
2018-08-09T00:42:03.467Z,101089.47
2018-08-09T00:44:33.704Z,101076.96
2018-08-09T00:47:04.428Z,101069.72
2018-08-09T00:49:34.248Z,101071.99
2018-08-09T00:52:05.824Z,101065.38
2018-08-09T00:54:36.141Z,101068.41
2018-08-09T00:57:10.282Z,101068.41
2018-08-09T00:59:39.920Z,101066.36
2018-08-09T01:02:12.048Z,101059.04
2018-08-09T01:04:42.286Z,101062.38
2018-08-09T01:07:20.220Z,101067.58
2018-08-09T01:09:53.719Z,101066.20
2018-08-09T01:12:23.255Z,101067.68
2018-08-09T01:14:52.590Z,101071.47
2018-08-09T01:17:23.376Z,101064.34
2018-08-09T01:19:54.207Z,101060.27
2018-08-09T01:22:24.269Z,101054.50
2018-08-09T01:24:53.699Z,101055.78
2018-08-09T01:27:23.056Z,101050.34
2018-08-09T01:29:52.560Z,101048.69
2018-08-09T01:35:11.940Z,101050.30
2018-08-09T01:37:41.402Z,101041.30
2018-08-09T01:40:15.047Z,101043.19
2018-08-09T01:42:55.314Z,101035.27
2018-08-09T01:45:25.658Z,101035.97
2018-08-09T01:47:55.193Z,101038.30
2018-08-09T01:50:24.706Z,101041.84
2018-08-09T01:52:54.062Z,101032.73
2018-08-09T01:55:23.708Z,101028.78
2018-08-09T01:57:53.083Z,101027.74
2018-08-09T02:00:23.423Z,101020.44
2018-08-09T02:02:54.195Z,101021.08
2018-08-09T02:05:25.079Z,101017.20
2018-08-09T02:07:55.635Z,101001.55
2018-08-09T02:10:25.863Z,101007.94
2018-08-09T02:12:56.062Z,101004.81
2018-08-09T02:15:29.581Z,101014.52
2018-08-09T02:17:58.718Z,101015.00
2018-08-09T02:20:28.516Z,101005.09
2018-08-09T02:22:57.982Z,100994.66
2018-08-09T02:25:27.682Z,101000.70
2018-08-09T02:27:57.199Z,101005.30
2018-08-09T02:30:27.852Z,100997.66
2018-08-09T02:32:57.358Z,100993.05
2018-08-09T02:35:27.177Z,100996.11
2018-08-09T02:37:56.548Z,100989.23
2018-08-09T02:40:26.016Z,100991.95
2018-08-09T02:42:58.701Z,100984.88
2018-08-09T02:45:28.705Z,100981.23
2018-08-09T02:47:58.244Z,100979.72
2018-08-09T02:50:28.057Z,100973.45
2018-08-09T02:52:57.765Z,100967.50
2018-08-09T02:55:27.524Z,100959.27
2018-08-09T02:57:58.850Z,100975.80
2018-08-09T03:00:28.953Z,100973.17
2018-08-09T03:02:58.870Z,100967.31
2018-08-09T03:05:28.356Z,100958.76
2018-08-09T03:07:58.232Z,100947.58
2018-08-09T03:10:28.992Z,100945.06
2018-08-09T03:12:58.288Z,100949.13
2018-08-09T03:15:30.104Z,100951.33
2018-08-09T03:18:01.418Z,100953.64
2018-08-09T03:20:31.134Z,100954.45
2018-08-09T03:23:03.620Z,100959.68
2018-08-09T03:25:35.208Z,100968.47
2018-08-09T03:28:05.237Z,100966.78
2018-08-09T03:30:35.197Z,100966.14
2018-08-09T03:33:06.483Z,100962.63
2018-08-09T03:35:36.825Z,100956.97
2018-08-09T03:38:06.824Z,100948.49
2018-08-09T03:40:37.364Z,100956.20
2018-08-09T03:43:07.214Z,100960.80
2018-08-09T03:45:37.029Z,100946.61
2018-08-09T03:48:06.467Z,100954.95
2018-08-09T03:50:36.247Z,100953.67
2018-08-09T03:53:05.760Z,100954.52
2018-08-09T03:55:35.232Z,100942.28
2018-08-09T03:58:04.741Z,100943.42
2018-08-09T04:00:34.927Z,100951.84
2018-08-09T04:03:04.316Z,100955.48
2018-08-09T04:05:38.870Z,100952.05
2018-08-09T04:08:08.330Z,100943.70
2018-08-09T04:10:37.766Z,100956.12
2018-08-09T04:13:07.030Z,100957.67
2018-08-09T04:15:37.295Z,100954.76
2018-08-09T04:18:06.663Z,100956.13
2018-08-09T04:20:35.897Z,100961.16
2018-08-09T04:23:05.635Z,100953.45
2018-08-09T04:25:35.213Z,100957.83
2018-08-09T04:28:05.644Z,100953.01
2018-08-09T04:30:36.328Z,100957.31
2018-08-09T04:33:06.236Z,100958.23
2018-08-09T04:35:35.591Z,100961.88
2018-08-09T04:38:05.573Z,100958.36
2018-08-09T04:40:35.793Z,100950.30
2018-08-09T04:43:06.244Z,100940.78
2018-08-09T04:45:38.043Z,100935.42
2018-08-09T04:48:13.928Z,100935.42
2018-08-09T04:50:43.314Z,100927.58
2018-08-09T04:53:12.749Z,100929.01
2018-08-09T04:55:44.477Z,100931.16
2018-08-09T04:58:14.069Z,100934.66
2018-08-09T05:00:43.514Z,100937.56
2018-08-09T05:03:17.595Z,100936.16
2018-08-09T05:05:48.988Z,100933.20
2018-08-09T05:08:20.768Z,100940.55
2018-08-09T05:10:50.100Z,100937.56
2018-08-09T05:13:20.911Z,100937.33
2018-08-09T05:16:00.432Z,100931.73
2018-08-09T05:18:31.112Z,100922.41
2018-08-09T05:23:41.945Z,100915.20
2018-08-09T05:26:11.825Z,100915.61
2018-08-09T05:28:41.122Z,100913.08
2018-08-09T05:31:10.701Z,100909.48
2018-08-09T05:33:41.809Z,100904.13
2018-08-09T05:36:11.180Z,100828.42
2018-08-09T05:38:40.589Z,100893.23
2018-08-09T05:41:10.556Z,100881.03
2018-08-09T05:43:41.698Z,100873.99
2018-08-09T05:46:11.542Z,100816.58
2018-08-09T05:49:02.092Z,100877.83
2018-08-09T05:51:32.240Z,100878.73
2018-08-09T05:54:05.032Z,100876.64
2018-08-09T05:56:38.982Z,100877.52
2018-08-09T05:59:08.465Z,100879.04
2018-08-09T06:01:40.395Z,100877.02
2018-08-09T06:04:10.474Z,100881.19
2018-08-09T06:06:41.754Z,100881.45
2018-08-09T06:09:14.150Z,100883.08
2018-08-09T06:11:43.853Z,100885.03
2018-08-09T06:14:19.840Z,100883.81
2018-08-09T06:16:49.693Z,100879.32
2018-08-09T06:19:18.979Z,100866.39
2018-08-09T06:21:54.236Z,100854.92
2018-08-09T06:24:23.679Z,100848.75
2018-08-09T06:26:53.039Z,100841.11
2018-08-09T06:29:23.315Z,100836.23
2018-08-09T06:31:53.799Z,100834.80
2018-08-09T06:34:27.765Z,100842.28
2018-08-09T06:36:59.161Z,100848.89
2018-08-09T06:39:29.991Z,100841.70
2018-08-09T06:42:00.956Z,100843.65
2018-08-09T06:44:30.234Z,100843.61
2018-08-09T06:47:01.274Z,100826.94
2018-08-09T06:49:31.807Z,100815.59
2018-08-09T06:52:14.468Z,100813.55
2018-08-09T06:54:45.143Z,100819.29
2018-08-09T06:57:15.627Z,100812.55
2018-08-09T06:59:45.077Z,100807.94
2018-08-09T07:02:15.426Z,100806.77
2018-08-09T07:04:45.215Z,100806.18
2018-08-09T07:07:14.805Z,100710.97
2018-08-09T07:09:50.792Z,100816.37
2018-08-09T07:12:21.279Z,100817.39
2018-08-09T07:14:51.738Z,100804.95
2018-08-09T07:17:22.952Z,100801.50
2018-08-09T07:19:54.920Z,100814.06
2018-08-09T07:22:28.404Z,100814.08
2018-08-09T07:24:57.798Z,100823.13
2018-08-09T07:27:27.564Z,100825.03
2018-08-09T07:30:04.436Z,100817.34
2018-08-09T07:32:36.116Z,100808.48
2018-08-09T07:35:06.296Z,100793.04
2018-08-09T07:37:36.179Z,100800.08
2018-08-09T07:40:14.418Z,100798.77
2018-08-09T07:42:50.317Z,100804.28
2018-08-09T07:45:20.466Z,100813.02
2018-08-09T07:47:50.565Z,100796.97
2018-08-09T07:50:27.504Z,100796.06
2018-08-09T07:53:03.248Z,100795.57
2018-08-09T07:55:40.273Z,100792.87
2018-08-09T07:58:19.113Z,100772.77
2018-08-09T08:00:52.833Z,100764.80
2018-08-09T08:03:43.067Z,100763.50
2018-08-09T08:09:06.336Z,100755.36
2018-08-09T08:11:36.946Z,100748.38
2018-08-09T08:14:07.088Z,100745.63
2018-08-09T08:16:38.257Z,100737.81
2018-08-09T08:19:15.424Z,100741.67
2018-08-09T08:21:45.877Z,100734.14
2018-08-09T08:24:16.298Z,100729.76
2018-08-09T08:29:30.909Z,100728.37
2018-08-09T08:32:10.700Z,100723.48
2018-08-09T08:34:47.593Z,100720.50
2018-08-09T08:37:17.746Z,100713.02
2018-08-09T08:39:50.748Z,100717.72
2018-08-09T08:42:20.243Z,100717.58
2018-08-09T08:44:49.994Z,100727.02
2018-08-09T08:47:23.979Z,100721.63
2018-08-09T08:49:55.314Z,100721.84
2018-08-09T08:52:25.323Z,100733.91
2018-08-09T08:54:56.226Z,100723.42
2018-08-09T08:57:30.240Z,100708.63
2018-08-09T09:00:01.872Z,100716.99
2018-08-09T09:02:32.292Z,100710.66
2018-08-09T09:05:08.908Z,100708.38
2018-08-09T09:07:40.311Z,100698.97
2018-08-09T09:10:18.990Z,100692.36
2018-08-09T09:13:02.619Z,100672.72
2018-08-09T09:15:33.033Z,100667.95
2018-08-09T09:18:08.421Z,100651.77
2018-08-09T09:20:47.281Z,100644.81
2018-08-09T09:23:21.444Z,100639.68
2018-08-09T09:25:57.241Z,100631.72
2018-08-09T09:28:28.298Z,100633.28
2018-08-09T09:31:00.683Z,100632.86
2018-08-09T09:33:34.760Z,100634.27
2018-08-09T09:36:07.863Z,100630.41
2018-08-09T09:38:39.996Z,100633.98
2018-08-09T09:42:13.379Z,100623.26
2018-08-09T09:44:50.802Z,100567.16
2018-08-09T09:47:28.747Z,100591.44
2018-08-09T09:50:01.752Z,100587.21
2018-08-09T09:52:40.476Z,100572.95
2018-08-09T09:55:13.569Z,100556.75
2018-08-09T10:00:25.958Z,100528.34
2018-08-09T10:03:03.152Z,100502.89
2018-08-09T10:05:35.657Z,100489.24
2018-08-09T10:08:13.242Z,100481.88
2018-08-09T10:10:44.394Z,100473.80
2018-08-09T10:13:15.413Z,100471.14
2018-08-09T10:15:47.884Z,100472.45
2018-08-09T10:18:29.104Z,100470.08
2018-08-09T10:23:38.576Z,100463.75
2018-08-09T10:26:10.507Z,100468.38
2018-08-09T10:28:40.296Z,100469.91
2018-08-09T10:31:10.803Z,100460.72
2018-08-09T10:33:41.870Z,100449.84
2018-08-09T10:36:12.047Z,100440.10
2018-08-09T10:39:01.276Z,100427.59
2018-08-09T10:41:31.942Z,100423.92
2018-08-09T10:44:06.158Z,100418.36
2018-08-09T10:46:37.533Z,100410.83
2018-08-09T10:49:08.888Z,100407.58
2018-08-09T10:51:44.988Z,100395.30
2018-08-09T10:54:17.876Z,100391.97
2018-08-09T10:56:55.796Z,100378.41
2018-08-09T10:59:26.582Z,100363.41
2018-08-09T11:02:10.208Z,100364.80
2018-08-09T11:04:39.947Z,100358.48
2018-08-09T11:07:11.334Z,100349.37
2018-08-09T11:09:40.638Z,100348.44
2018-08-09T11:12:11.385Z,100350.73
2018-08-09T11:14:42.689Z,100351.81
2018-08-09T11:17:14.365Z,100344.67
2018-08-09T11:19:44.295Z,100357.47
2018-08-09T11:22:18.086Z,100350.87
2018-08-09T11:24:48.008Z,100346.09
2018-08-09T11:27:18.325Z,100337.25
2018-08-09T11:29:47.789Z,100329.38
2018-08-09T11:32:20.836Z,100322.98
2018-08-09T11:34:54.230Z,100323.27
2018-08-09T11:37:25.688Z,100317.36
2018-08-09T11:39:57.876Z,100315.92
2018-08-09T11:42:27.485Z,100318.67
2018-08-09T11:44:58.572Z,100326.20
2018-08-09T11:47:28.229Z,100318.42
2018-08-09T11:49:59.210Z,100306.31
2018-08-09T11:52:29.322Z,100304.33
2018-08-09T11:54:59.346Z,100291.62
2018-08-09T11:57:31.792Z,100306.55
2018-08-09T12:00:01.942Z,100286.88
2018-08-09T12:02:35.960Z,100271.95
2018-08-09T12:05:06.999Z,100267.53
2018-08-09T12:07:38.469Z,100245.42
2018-08-09T12:10:10.484Z,100227.06
2018-08-09T12:12:40.347Z,100227.27
2018-08-09T12:17:52.240Z,100227.82
2018-08-09T12:20:22.574Z,100232.32
2018-08-09T12:22:52.349Z,100244.82
2018-08-09T12:25:23.616Z,100243.13
2018-08-09T12:27:53.537Z,100250.64
2018-08-09T12:30:26.104Z,100243.56
2018-08-09T12:32:55.457Z,100237.48
2018-08-09T12:35:26.234Z,100232.64
2018-08-09T12:37:55.873Z,100229.49
2018-08-09T12:40:34.309Z,100204.69
2018-08-09T12:43:04.364Z,100217.59
2018-08-09T12:45:35.285Z,100227.61
2018-08-09T12:48:07.678Z,100239.84
2018-08-09T12:50:38.928Z,100214.10
2018-08-09T12:53:09.031Z,100215.06
2018-08-09T12:55:39.049Z,100212.94
2018-08-09T12:58:11.255Z,100212.68
2018-08-09T13:00:56.032Z,100214.09
2018-08-09T13:03:30.380Z,100214.09
2018-08-09T13:06:00.115Z,100180.71
2018-08-09T13:09:27.499Z,100212.70
2018-08-09T13:12:13.845Z,100220.63
2018-08-09T13:14:45.576Z,100214.96
2018-08-09T13:17:17.267Z,100202.53
2018-08-09T13:22:22.594Z,100158.16
2018-08-09T13:24:55.111Z,100222.22
2018-08-09T13:27:26.256Z,100221.16
2018-08-09T13:29:59.318Z,100209.39
2018-08-09T13:32:30.764Z,100210.77
2018-08-09T13:35:03.003Z,100231.11
2018-08-09T13:37:35.370Z,100246.47
2018-08-09T13:40:06.636Z,100244.55
2018-08-09T13:42:42.638Z,100247.57
2018-08-09T13:45:24.666Z,100248.38
2018-08-09T13:47:55.500Z,100268.72
2018-08-09T13:50:31.575Z,100268.43
2018-08-09T13:53:06.636Z,100264.59
2018-08-09T13:55:42.273Z,100243.47
2018-08-09T13:58:16.357Z,100274.41
2018-08-09T14:00:53.615Z,100270.42
2018-08-09T14:03:35.376Z,100300.23
2018-08-09T14:06:23.319Z,100266.65
2018-08-09T14:08:58.452Z,100306.94
2018-08-09T14:11:28.744Z,100316.67
2018-08-09T14:13:59.087Z,100311.99
2018-08-09T14:16:39.963Z,100319.71
2018-08-09T14:19:10.251Z,100325.97
2018-08-09T14:21:42.508Z,100272.45
2018-08-09T14:24:12.914Z,100322.20
2018-08-09T14:26:42.859Z,100334.75
2018-08-09T14:29:16.741Z,100327.27
2018-08-09T14:31:48.373Z,100340.09
2018-08-09T14:34:18.809Z,100360.49
2018-08-09T14:36:53.153Z,100349.72
2018-08-09T14:39:24.258Z,100340.92
2018-08-09T14:41:53.688Z,100358.22
2018-08-09T14:44:23.082Z,100357.55
2018-08-09T14:46:53.784Z,100350.28
2018-08-09T14:49:24.623Z,100348.73
2018-08-09T14:51:58.218Z,100341.73
2018-08-09T14:54:31.408Z,100358.35
2018-08-09T14:57:03.568Z,100363.27
2018-08-09T14:59:34.810Z,100369.32
2018-08-09T15:02:08.509Z,100378.59
2018-08-09T15:04:40.649Z,100370.11
2018-08-09T15:07:11.790Z,100378.63
2018-08-09T15:09:43.193Z,100376.22
2018-08-09T15:12:12.942Z,100364.30
2018-08-09T15:14:43.855Z,100358.67
2018-08-09T15:17:14.481Z,100370.95
2018-08-09T15:19:44.012Z,100368.87
2018-08-09T15:22:14.673Z,100373.27
2018-08-09T15:24:47.476Z,100382.52
2018-08-09T15:27:18.058Z,100316.05
2018-08-09T15:29:49.004Z,100383.00
2018-08-09T15:32:21.086Z,100371.23
2018-08-09T15:34:51.836Z,100361.48
2018-08-09T15:37:22.203Z,100356.41
2018-08-09T15:39:52.840Z,100372.09
2018-08-09T15:42:24.395Z,100365.22
2018-08-09T15:45:00.773Z,100368.95
2018-08-09T15:47:33.408Z,100370.18
2018-08-09T15:50:07.291Z,100359.41
2018-08-09T15:52:38.952Z,100364.33
2018-08-09T15:55:10.241Z,100361.41
2018-08-09T15:57:42.250Z,100361.86
2018-08-09T16:00:22.415Z,100367.73
2018-08-09T16:02:59.898Z,100350.08
2018-08-09T16:05:36.644Z,100353.08
2018-08-09T16:08:12.790Z,100362.25
2018-08-09T16:10:43.913Z,100358.61
2018-08-09T16:13:13.902Z,100357.51
2018-08-09T16:15:44.692Z,100355.13
2018-08-09T16:18:15.568Z,100346.30
2018-08-09T16:20:52.196Z,100350.11
2018-08-09T16:23:28.632Z,100358.95
2018-08-09T16:25:59.788Z,100351.22
2018-08-09T16:28:41.892Z,100355.14
2018-08-09T16:31:12.264Z,100345.27
2018-08-09T16:33:46.061Z,100356.47
2018-08-09T16:36:20.312Z,100346.84
2018-08-09T16:39:04.649Z,100336.22
2018-08-09T16:41:34.203Z,100340.45
2018-08-09T16:44:05.042Z,100349.95
2018-08-09T16:46:34.752Z,100342.64
2018-08-09T16:49:07.052Z,100354.89
2018-08-09T16:51:39.917Z,100341.90
2018-08-09T16:54:14.322Z,100346.94
2018-08-09T16:56:51.318Z,100330.02
2018-08-09T16:59:26.383Z,100338.61
2018-08-09T17:02:01.403Z,100350.40
2018-08-09T17:04:32.075Z,100325.72
2018-08-09T17:07:02.329Z,100317.69
2018-08-09T17:09:32.524Z,100318.97
2018-08-09T17:12:13.584Z,100313.66
2018-08-09T17:14:45.413Z,100322.69
2018-08-09T17:17:19.020Z,100323.34
2018-08-09T17:19:51.558Z,100330.23
2018-08-09T17:22:23.424Z,100332.16
2018-08-09T17:24:53.571Z,100340.33
2018-08-09T17:27:23.704Z,100344.72
2018-08-09T17:29:55.534Z,100343.64
2018-08-09T17:35:13.825Z,100353.92
2018-08-09T17:37:50.688Z,100358.84
2018-08-09T17:40:35.626Z,100378.66
2018-08-09T17:43:25.488Z,100374.52
2018-08-09T17:46:03.691Z,100429.72
2018-08-09T17:48:45.002Z,100433.25
2018-08-09T17:54:00.008Z,100456.70
2018-08-09T17:56:33.649Z,100447.13
2018-08-09T17:59:12.924Z,100448.67
2018-08-09T18:01:53.146Z,100470.85
2018-08-09T18:04:27.039Z,100474.23
2018-08-09T18:06:59.468Z,100479.92
2018-08-09T18:09:31.330Z,100495.23
2018-08-09T18:12:01.635Z,100487.39
2018-08-09T18:14:33.472Z,100495.15
2018-08-09T18:17:07.296Z,100505.13
2018-08-09T18:19:43.082Z,100527.12
2018-08-09T18:22:18.176Z,100517.98
2018-08-09T18:24:51.247Z,100526.80
2018-08-09T18:27:24.321Z,100538.45
2018-08-09T18:29:53.820Z,100536.61
2018-08-09T18:32:26.585Z,100536.39
2018-08-09T18:35:09.843Z,100540.96
2018-08-09T18:37:50.622Z,100545.37
2018-08-09T18:43:04.889Z,100557.48
2018-08-09T18:45:44.020Z,100566.31
2018-08-09T18:48:16.569Z,100571.97
2018-08-09T18:50:48.732Z,100567.59
2018-08-09T18:53:22.499Z,100581.73
2018-08-09T18:55:57.186Z,100584.27
2018-08-09T18:58:31.268Z,100548.53
2018-08-09T19:01:03.742Z,100600.77
2018-08-09T19:03:36.688Z,100607.06
2018-08-09T19:06:08.936Z,100611.23
2018-08-09T19:08:46.950Z,100609.87
2018-08-09T19:11:22.614Z,100615.89
2018-08-09T19:13:53.392Z,100615.31
2018-08-09T19:16:24.824Z,100623.16
2018-08-09T19:18:55.253Z,100619.55
2018-08-09T19:21:32.101Z,100637.05
2018-08-09T19:24:05.902Z,100636.36
2018-08-09T19:26:35.257Z,100637.16
2018-08-09T19:29:07.333Z,100638.31
2018-08-09T19:31:42.040Z,100645.67
2018-08-09T19:34:14.313Z,100660.02
2018-08-09T19:36:46.274Z,100655.34
2018-08-09T19:40:24.825Z,100663.45
2018-08-09T19:42:54.879Z,100657.91
2018-08-09T19:45:26.370Z,100668.91
2018-08-09T19:48:08.573Z,100662.91
2018-08-09T19:50:43.252Z,100671.23
2018-08-09T19:53:15.629Z,100677.66
2018-08-09T19:55:48.348Z,100674.43
2018-08-09T19:58:24.586Z,100675.47
2018-08-09T20:00:55.677Z,100676.14
2018-08-09T20:03:52.586Z,100684.01
2018-08-09T20:06:22.572Z,100682.05
2018-08-09T20:08:55.162Z,100691.03
2018-08-09T20:11:26.229Z,100711.80
2018-08-09T20:14:07.304Z,100708.20
2018-08-09T20:16:38.991Z,100720.59
2018-08-09T20:19:11.744Z,100729.02
2018-08-09T20:21:50.143Z,100734.56
2018-08-09T20:24:24.291Z,100751.88
2018-08-09T20:26:57.621Z,100738.33
2018-08-09T20:29:35.936Z,100761.30
2018-08-09T20:32:12.511Z,100753.62
2018-08-09T20:34:49.111Z,100757.48
2018-08-09T20:37:25.961Z,100767.46
2018-08-09T20:40:22.497Z,100764.35
2018-08-09T20:42:57.657Z,100768.33
2018-08-09T20:45:42.171Z,100788.87
2018-08-09T20:48:26.689Z,100797.11
2018-08-09T20:50:59.689Z,100787.81
2018-08-09T20:53:46.281Z,100812.17
2018-08-09T20:56:27.928Z,100826.64
2018-08-09T20:59:04.507Z,100835.58
2018-08-09T21:01:42.774Z,100837.67
2018-08-09T21:04:20.229Z,100857.85
2018-08-09T21:06:53.435Z,100869.58
2018-08-09T21:09:25.373Z,100877.84
2018-08-09T21:11:56.912Z,100892.09
2018-08-09T21:14:44.262Z,100898.85
2018-08-09T21:20:14.632Z,100916.15
2018-08-09T21:22:46.711Z,100912.39
2018-08-09T21:25:18.738Z,100923.92
2018-08-09T21:27:55.723Z,100919.95
2018-08-09T21:30:28.315Z,100929.78
2018-08-09T21:33:04.317Z,100865.67
2018-08-09T21:35:45.503Z,100936.67
2018-08-09T21:38:32.625Z,100942.34
2018-08-09T21:41:05.836Z,100952.76
2018-08-09T21:43:35.899Z,100955.97
2018-08-09T21:46:06.087Z,100958.49
2018-08-09T21:48:36.611Z,100971.17
2018-08-09T21:51:07.463Z,100969.68
2018-08-09T21:53:44.139Z,100977.16
2018-08-09T21:56:18.641Z,100996.01
2018-08-09T21:58:53.735Z,100993.98
2018-08-09T22:01:27.855Z,101006.70
2018-08-09T22:04:04.592Z,101013.89
2018-08-09T22:06:42.759Z,101035.06
2018-08-09T22:09:25.708Z,101040.84
2018-08-09T22:13:10.952Z,101069.16
2018-08-09T22:15:52.368Z,101058.58
2018-08-09T22:18:31.351Z,101069.58
2018-08-09T22:21:10.348Z,101081.02
2018-08-09T22:23:59.555Z,101076.89
2018-08-09T22:26:47.490Z,101083.03
2018-08-09T22:29:37.456Z,101090.63
2018-08-09T22:32:12.438Z,101094.00
2018-08-09T22:34:58.952Z,101105.19
2018-08-09T22:37:40.494Z,101110.36
2018-08-09T22:40:14.314Z,101112.10
2018-08-09T22:42:49.294Z,101130.44
2018-08-09T22:45:21.782Z,101131.29
2018-08-09T22:47:53.945Z,101135.97
2018-08-09T22:50:25.425Z,101141.96
2018-08-09T22:52:59.936Z,101150.02
2018-08-09T22:55:30.399Z,101154.95
2018-08-09T22:58:01.624Z,101160.14
2018-08-09T23:00:34.724Z,101164.70
2018-08-09T23:03:04.745Z,101168.02
2018-08-09T23:05:34.356Z,101168.36
2018-08-09T23:08:05.663Z,101125.59
2018-08-09T23:10:48.140Z,101176.04
2018-08-09T23:13:20.642Z,101182.66
2018-08-09T23:15:50.989Z,101184.47
2018-08-09T23:18:21.866Z,101191.18
2018-08-09T23:23:52.063Z,101204.34
2018-08-09T23:26:22.718Z,101202.66
2018-08-09T23:28:53.797Z,101210.37
2018-08-09T23:31:23.787Z,101215.95
2018-08-09T23:33:53.403Z,101220.72
2018-08-09T23:36:23.433Z,101225.06
2018-08-09T23:38:54.692Z,101229.16
2018-08-09T23:41:24.029Z,101239.99
2018-08-09T23:43:53.981Z,101230.58
2018-08-09T23:46:26.326Z,101248.67
2018-08-09T23:48:56.774Z,101254.25
2018-08-09T23:51:30.060Z,101256.74
2018-08-09T23:54:00.521Z,101249.31
2018-08-09T23:56:33.442Z,101259.95
2018-08-09T23:59:09.876Z,101261.57
